sensor_id;sensor_type;location;lat;lon;timestamp;pressure;altitude;pressure_sealevel;temperature;humidity
78590;BME280;67888;50.228;7.828;2023-02-28T00:03:33;100197.22;;;-1.17;70.27
78590;BME280;67888;50.228;7.828;2023-02-28T00:08:37;100200.31;;;-1.29;70.98
78590;BME280;67888;50.228;7.828;2023-02-28T00:13:40;100192.13;;;-1.41;71.90
78590;BME280;67888;50.228;7.828;2023-02-28T00:18:41;100201.47;;;-1.48;71.78
78590;BME280;67888;50.228;7.828;2023-02-28T00:23:42;100195.19;;;-1.54;71.99
78590;BME280;67888;50.228;7.828;2023-02-28T00:28:42;100204.06;;;-1.56;72.42
78590;BME280;67888;50.228;7.828;2023-02-28T00:33:43;100196.00;;;-1.69;72.96
78590;BME280;67888;50.228;7.828;2023-02-28T00:38:43;100191.34;;;-1.74;72.76
78590;BME280;67888;50.228;7.828;2023-02-28T00:43:44;100201.19;;;-1.77;73.90
78590;BME280;67888;50.228;7.828;2023-02-28T00:48:44;100193.78;;;-1.81;74.24
78590;BME280;67888;50.228;7.828;2023-02-28T00:53:45;100197.78;;;-1.86;75.59
78590;BME280;67888;50.228;7.828;2023-02-28T00:58:45;100202.94;;;-1.86;75.61
78590;BME280;67888;50.228;7.828;2023-02-28T01:03:45;100204.25;;;-1.90;76.44
78590;BME280;67888;50.228;7.828;2023-02-28T01:08:46;100203.59;;;-1.92;76.85
78590;BME280;67888;50.228;7.828;2023-02-28T01:13:46;100195.22;;;-1.94;77.11
78590;BME280;67888;50.228;7.828;2023-02-28T01:18:47;100201.81;;;-2.00;77.73
78590;BME280;67888;50.228;7.828;2023-02-28T01:23:48;100204.41;;;-2.08;77.58
78590;BME280;67888;50.228;7.828;2023-02-28T01:28:50;100206.47;;;-2.11;78.08
78590;BME280;67888;50.228;7.828;2023-02-28T01:33:51;100202.47;;;-2.06;77.94
78590;BME280;67888;50.228;7.828;2023-02-28T01:38:51;100195.06;;;-2.17;78.15
78590;BME280;67888;50.228;7.828;2023-02-28T01:44:05;100195.69;;;-2.07;78.81
78590;BME280;67888;50.228;7.828;2023-02-28T01:49:13;100197.78;;;-2.19;78.72
78590;BME280;67888;50.228;7.828;2023-02-28T01:54:18;100189.09;;;-2.18;78.55
78590;BME280;67888;50.228;7.828;2023-02-28T01:59:26;100191.16;;;-2.13;78.42
78590;BME280;67888;50.228;7.828;2023-02-28T02:04:35;100186.03;;;-2.05;78.44
78590;BME280;67888;50.228;7.828;2023-02-28T02:09:38;100189.56;;;-2.06;78.15
78590;BME280;67888;50.228;7.828;2023-02-28T02:14:43;100190.19;;;-2.12;78.00
78590;BME280;67888;50.228;7.828;2023-02-28T02:30:38;100172.78;;;-2.34;78.31
78590;BME280;67888;50.228;7.828;2023-02-28T02:35:54;100170.22;;;-2.34;78.43
78590;BME280;67888;50.228;7.828;2023-02-28T02:41:13;100166.00;;;-2.43;78.42
78590;BME280;67888;50.228;7.828;2023-02-28T02:46:36;100171.13;;;-2.52;78.67
78590;BME280;67888;50.228;7.828;2023-02-28T02:51:40;100169.56;;;-2.44;78.43
78590;BME280;67888;50.228;7.828;2023-02-28T02:56:44;100170.81;;;-2.48;78.46
78590;BME280;67888;50.228;7.828;2023-02-28T03:01:45;100175.81;;;-2.55;78.72
78590;BME280;67888;50.228;7.828;2023-02-28T03:06:46;100180.47;;;-2.59;79.06
78590;BME280;67888;50.228;7.828;2023-02-28T03:11:46;100176.28;;;-2.60;78.69
78590;BME280;67888;50.228;7.828;2023-02-28T03:27:24;100171.72;;;-2.74;78.76
78590;BME280;67888;50.228;7.828;2023-02-28T03:32:32;100180.09;;;-2.80;78.47
78590;BME280;67888;50.228;7.828;2023-02-28T03:37:35;100178.00;;;-2.76;78.44
78590;BME280;67888;50.228;7.828;2023-02-28T03:42:40;100171.88;;;-2.83;78.41
78590;BME280;67888;50.228;7.828;2023-02-28T03:53:19;100176.00;;;-2.99;79.01
78590;BME280;67888;50.228;7.828;2023-02-28T03:58:51;100182.09;;;-3.00;78.72
78590;BME280;67888;50.228;7.828;2023-02-28T04:03:49;100190.91;;;-3.10;79.14
78590;BME280;67888;50.228;7.828;2023-02-28T04:08:50;100194.47;;;-3.03;79.34
78590;BME280;67888;50.228;7.828;2023-02-28T04:13:51;100184.78;;;-3.09;78.83
78590;BME280;67888;50.228;7.828;2023-02-28T04:18:51;100183.16;;;-3.18;78.93
78590;BME280;67888;50.228;7.828;2023-02-28T04:23:52;100188.44;;;-3.20;79.11
78590;BME280;67888;50.228;7.828;2023-02-28T04:28:52;100182.78;;;-3.23;79.13
78590;BME280;67888;50.228;7.828;2023-02-28T04:33:52;100181.16;;;-3.33;79.35
78590;BME280;67888;50.228;7.828;2023-02-28T04:38:53;100184.47;;;-3.40;79.64
78590;BME280;67888;50.228;7.828;2023-02-28T04:43:53;100189.59;;;-3.40;79.47
78590;BME280;67888;50.228;7.828;2023-02-28T04:48:54;100190.13;;;-3.37;79.48
78590;BME280;67888;50.228;7.828;2023-02-28T04:53:54;100192.31;;;-3.42;79.34
78590;BME280;67888;50.228;7.828;2023-02-28T04:58:55;100186.59;;;-3.36;79.41
78590;BME280;67888;50.228;7.828;2023-02-28T05:03:58;100191.38;;;-3.41;79.17
78590;BME280;67888;50.228;7.828;2023-02-28T05:08:59;100189.41;;;-3.47;79.48
78590;BME280;67888;50.228;7.828;2023-02-28T05:13:59;100192.13;;;-3.48;79.13
78590;BME280;67888;50.228;7.828;2023-02-28T05:19:00;100193.09;;;-3.49;79.06
78590;BME280;67888;50.228;7.828;2023-02-28T05:24:11;100200.00;;;-3.50;79.11
78590;BME280;67888;50.228;7.828;2023-02-28T05:29:12;100206.09;;;-3.51;79.21
78590;BME280;67888;50.228;7.828;2023-02-28T05:34:12;100208.78;;;-3.61;78.91
78590;BME280;67888;50.228;7.828;2023-02-28T05:39:15;100200.56;;;-3.64;79.25
78590;BME280;67888;50.228;7.828;2023-02-28T05:44:16;100204.06;;;-3.65;79.34
78590;BME280;67888;50.228;7.828;2023-02-28T05:49:16;100201.81;;;-3.68;79.17
78590;BME280;67888;50.228;7.828;2023-02-28T05:54:16;100206.75;;;-3.75;79.24
78590;BME280;67888;50.228;7.828;2023-02-28T05:59:17;100203.59;;;-3.69;79.36
78590;BME280;67888;50.228;7.828;2023-02-28T06:04:19;100211.13;;;-3.67;79.10
78590;BME280;67888;50.228;7.828;2023-02-28T06:09:19;100207.69;;;-3.58;78.68
78590;BME280;67888;50.228;7.828;2023-02-28T06:14:20;100210.28;;;-3.50;78.62
78590;BME280;67888;50.228;7.828;2023-02-28T06:19:21;100212.31;;;-3.36;78.22
78590;BME280;67888;50.228;7.828;2023-02-28T06:24:24;100212.91;;;-3.16;77.86
78590;BME280;67888;50.228;7.828;2023-02-28T06:29:25;100218.94;;;-2.99;77.36
78590;BME280;67888;50.228;7.828;2023-02-28T06:34:25;100219.84;;;-2.82;77.18
78590;BME280;67888;50.228;7.828;2023-02-28T06:39:26;100230.03;;;-2.65;76.34
78590;BME280;67888;50.228;7.828;2023-02-28T06:44:26;100232.16;;;-2.52;75.46
78590;BME280;67888;50.228;7.828;2023-02-28T06:49:27;100237.50;;;-2.45;75.81
78590;BME280;67888;50.228;7.828;2023-02-28T06:54:27;100241.09;;;-2.30;75.02
78590;BME280;67888;50.228;7.828;2023-02-28T06:59:28;100244.50;;;-2.22;74.89
78590;BME280;67888;50.228;7.828;2023-02-28T07:04:29;100260.00;;;-2.05;74.17
78590;BME280;67888;50.228;7.828;2023-02-28T07:09:29;100245.19;;;-1.95;73.78
78590;BME280;67888;50.228;7.828;2023-02-28T07:14:30;100254.22;;;-1.91;73.05
78590;BME280;67888;50.228;7.828;2023-02-28T07:19:30;100250.03;;;-1.92;73.13
78590;BME280;67888;50.228;7.828;2023-02-28T07:24:31;100256.16;;;-1.93;72.72
78590;BME280;67888;50.228;7.828;2023-02-28T07:29:31;100255.66;;;-1.89;72.38
78590;BME280;67888;50.228;7.828;2023-02-28T07:34:32;100258.09;;;-1.79;72.51
78590;BME280;67888;50.228;7.828;2023-02-28T07:39:32;100250.81;;;-1.43;71.09
78590;BME280;67888;50.228;7.828;2023-02-28T07:44:33;100256.59;;;-1.17;70.17
78590;BME280;67888;50.228;7.828;2023-02-28T07:49:35;100255.41;;;-0.98;69.11
78590;BME280;67888;50.228;7.828;2023-02-28T07:54:35;100255.75;;;-1.01;68.50
78590;BME280;67888;50.228;7.828;2023-02-28T07:59:35;100251.38;;;-0.92;66.95
78590;BME280;67888;50.228;7.828;2023-02-28T08:04:36;100262.28;;;-0.74;66.46
78590;BME280;67888;50.228;7.828;2023-02-28T08:09:36;100255.97;;;-0.72;65.46
78590;BME280;67888;50.228;7.828;2023-02-28T08:14:37;100253.50;;;-0.57;64.83
78590;BME280;67888;50.228;7.828;2023-02-28T08:19:38;100248.91;;;-0.39;64.50
78590;BME280;67888;50.228;7.828;2023-02-28T08:24:41;100253.75;;;-0.44;63.88
78590;BME280;67888;50.228;7.828;2023-02-28T08:29:42;100253.03;;;-0.29;63.63
78590;BME280;67888;50.228;7.828;2023-02-28T08:34:42;100243.78;;;-0.24;62.58
78590;BME280;67888;50.228;7.828;2023-02-28T08:39:42;100254.94;;;-0.23;62.16
78590;BME280;67888;50.228;7.828;2023-02-28T08:44:43;100246.50;;;-0.17;62.31
78590;BME280;67888;50.228;7.828;2023-02-28T08:49:43;100248.41;;;-0.11;61.98
78590;BME280;67888;50.228;7.828;2023-02-28T08:54:43;100249.91;;;0.06;61.81
78590;BME280;67888;50.228;7.828;2023-02-28T08:59:44;100254.63;;;0.25;60.95
78590;BME280;67888;50.228;7.828;2023-02-28T09:04:44;100246.81;;;0.33;60.84
78590;BME280;67888;50.228;7.828;2023-02-28T09:09:47;100236.72;;;0.39;60.24
78590;BME280;67888;50.228;7.828;2023-02-28T09:14:54;100235.13;;;0.52;60.23
78590;BME280;67888;50.228;7.828;2023-02-28T09:19:54;100232.31;;;0.77;58.44
78590;BME280;67888;50.228;7.828;2023-02-28T09:24:54;100232.78;;;0.80;57.46
78590;BME280;67888;50.228;7.828;2023-02-28T09:29:55;100227.69;;;1.01;56.50
78590;BME280;67888;50.228;7.828;2023-02-28T09:34:55;100232.38;;;1.42;55.28
78590;BME280;67888;50.228;7.828;2023-02-28T09:39:56;100228.97;;;1.56;52.46
78590;BME280;67888;50.228;7.828;2023-02-28T09:44:58;100235.91;;;1.70;52.25
78590;BME280;67888;50.228;7.828;2023-02-28T09:50:28;100233.19;;;1.78;49.19
78590;BME280;67888;50.228;7.828;2023-02-28T09:55:40;100224.97;;;1.90;48.70
78590;BME280;67888;50.228;7.828;2023-02-28T10:00:42;100217.03;;;2.19;49.21
78590;BME280;67888;50.228;7.828;2023-02-28T10:10:46;100228.34;;;2.11;48.83
78590;BME280;67888;50.228;7.828;2023-02-28T10:15:51;100236.50;;;1.87;47.47
78590;BME280;67888;50.228;7.828;2023-02-28T10:20:54;100234.94;;;2.35;48.48
78590;BME280;67888;50.228;7.828;2023-02-28T10:26:03;100240.88;;;2.29;47.20
78590;BME280;67888;50.228;7.828;2023-02-28T10:31:10;100239.53;;;2.12;48.18
78590;BME280;67888;50.228;7.828;2023-02-28T10:36:15;100249.53;;;2.36;49.10
78590;BME280;67888;50.228;7.828;2023-02-28T10:41:28;100258.16;;;2.43;47.59
78590;BME280;67888;50.228;7.828;2023-02-28T10:46:29;100238.56;;;2.13;47.75
78590;BME280;67888;50.228;7.828;2023-02-28T10:51:38;100247.66;;;2.30;47.35
78590;BME280;67888;50.228;7.828;2023-02-28T10:56:38;100240.72;;;2.59;47.67
78590;BME280;67888;50.228;7.828;2023-02-28T11:01:44;100237.97;;;2.67;48.17
78590;BME280;67888;50.228;7.828;2023-02-28T11:06:45;100230.47;;;2.50;46.88
78590;BME280;67888;50.228;7.828;2023-02-28T11:11:47;100228.50;;;2.31;47.21
78590;BME280;67888;50.228;7.828;2023-02-28T11:16:49;100226.06;;;2.79;47.18
78590;BME280;67888;50.228;7.828;2023-02-28T11:21:57;100221.50;;;2.53;46.91
78590;BME280;67888;50.228;7.828;2023-02-28T11:26:58;100203.41;;;3.01;47.38
78590;BME280;67888;50.228;7.828;2023-02-28T11:32:12;100219.72;;;2.88;45.67
78590;BME280;67888;50.228;7.828;2023-02-28T11:37:16;100211.97;;;2.67;44.13
78590;BME280;67888;50.228;7.828;2023-02-28T11:42:32;100206.44;;;3.58;43.06
78590;BME280;67888;50.228;7.828;2023-02-28T11:53:10;100206.34;;;4.13;43.17
78590;BME280;67888;50.228;7.828;2023-02-28T12:04:15;100190.47;;;3.88;40.92
78590;BME280;67888;50.228;7.828;2023-02-28T12:10:09;100191.72;;;4.38;42.54
78590;BME280;67888;50.228;7.828;2023-02-28T12:20:31;100193.47;;;4.71;41.25
78590;BME280;67888;50.228;7.828;2023-02-28T12:31:31;100211.75;;;4.31;41.04
78590;BME280;67888;50.228;7.828;2023-02-28T12:36:35;100195.28;;;4.44;42.36
78590;BME280;67888;50.228;7.828;2023-02-28T12:41:49;100198.09;;;4.49;41.50
78590;BME280;67888;50.228;7.828;2023-02-28T12:46:55;100186.84;;;5.32;42.67
78590;BME280;67888;50.228;7.828;2023-02-28T12:52:00;100179.56;;;5.03;39.99
78590;BME280;67888;50.228;7.828;2023-02-28T12:57:16;100163.50;;;5.06;40.32
78590;BME280;67888;50.228;7.828;2023-02-28T13:02:27;100173.72;;;5.46;39.86
78590;BME280;67888;50.228;7.828;2023-02-28T13:12:53;100171.09;;;5.84;39.14
78590;BME280;67888;50.228;7.828;2023-02-28T13:17:58;100175.00;;;6.31;38.89
78590;BME280;67888;50.228;7.828;2023-02-28T13:22:59;100174.31;;;5.92;38.80
78590;BME280;67888;50.228;7.828;2023-02-28T13:28:06;100181.63;;;7.73;35.62
78590;BME280;67888;50.228;7.828;2023-02-28T13:49:26;100188.81;;;16.98;22.48
78590;BME280;67888;50.228;7.828;2023-02-28T14:05:19;100175.97;;;17.85;20.81
78590;BME280;67888;50.228;7.828;2023-02-28T14:10:31;100171.69;;;17.28;20.40
78590;BME280;67888;50.228;7.828;2023-02-28T14:20:33;100173.94;;;17.96;21.17
78590;BME280;67888;50.228;7.828;2023-02-28T14:25:41;100167.56;;;18.70;19.00
78590;BME280;67888;50.228;7.828;2023-02-28T14:31:06;100177.03;;;18.76;18.95
78590;BME280;67888;50.228;7.828;2023-02-28T14:41:20;100164.13;;;19.33;19.45
78590;BME280;67888;50.228;7.828;2023-02-28T14:46:23;100160.66;;;19.46;18.35
78590;BME280;67888;50.228;7.828;2023-02-28T14:51:25;100163.91;;;18.06;20.18
78590;BME280;67888;50.228;7.828;2023-02-28T14:56:33;100153.22;;;19.07;19.15
78590;BME280;67888;50.228;7.828;2023-02-28T15:01:34;100151.72;;;19.01;18.66
78590;BME280;67888;50.228;7.828;2023-02-28T15:06:34;100152.44;;;19.79;18.68
78590;BME280;67888;50.228;7.828;2023-02-28T15:11:35;100151.59;;;18.38;20.14
78590;BME280;67888;50.228;7.828;2023-02-28T15:16:39;100157.28;;;17.10;19.92
78590;BME280;67888;50.228;7.828;2023-02-28T15:21:44;100155.00;;;16.27;20.92
78590;BME280;67888;50.228;7.828;2023-02-28T15:26:56;100159.38;;;14.75;23.26
78590;BME280;67888;50.228;7.828;2023-02-28T15:42:28;100161.91;;;16.57;21.95
78590;BME280;67888;50.228;7.828;2023-02-28T15:47:30;100150.13;;;10.87;29.27
78590;BME280;67888;50.228;7.828;2023-02-28T15:57:38;100152.69;;;9.48;31.94
78590;BME280;67888;50.228;7.828;2023-02-28T16:02:40;100156.03;;;9.43;31.47
78590;BME280;67888;50.228;7.828;2023-02-28T16:07:42;100153.81;;;8.83;32.11
78590;BME280;67888;50.228;7.828;2023-02-28T16:12:43;100151.31;;;8.65;33.06
78590;BME280;67888;50.228;7.828;2023-02-28T16:17:44;100158.13;;;7.96;34.28
78590;BME280;67888;50.228;7.828;2023-02-28T16:22:45;100151.91;;;7.37;35.14
78590;BME280;67888;50.228;7.828;2023-02-28T16:27:48;100159.53;;;7.39;35.36
78590;BME280;67888;50.228;7.828;2023-02-28T16:32:50;100161.16;;;6.48;37.16
78590;BME280;67888;50.228;7.828;2023-02-28T16:37:52;100168.31;;;6.35;37.38
78590;BME280;67888;50.228;7.828;2023-02-28T16:42:57;100159.94;;;5.70;38.37
78590;BME280;67888;50.228;7.828;2023-02-28T16:47:58;100170.50;;;5.57;39.29
78590;BME280;67888;50.228;7.828;2023-02-28T16:52:59;100170.78;;;4.84;41.10
78590;BME280;67888;50.228;7.828;2023-02-28T16:58:01;100182.91;;;4.26;42.53
78590;BME280;67888;50.228;7.828;2023-02-28T17:03:02;100178.69;;;3.99;42.74
78590;BME280;67888;50.228;7.828;2023-02-28T17:08:02;100182.41;;;3.56;44.05
78590;BME280;67888;50.228;7.828;2023-02-28T17:13:03;100193.53;;;3.31;44.64
78590;BME280;67888;50.228;7.828;2023-02-28T17:18:04;100195.94;;;3.32;44.32
78590;BME280;67888;50.228;7.828;2023-02-28T17:23:05;100196.22;;;3.03;45.57
78590;BME280;67888;50.228;7.828;2023-02-28T17:28:05;100205.53;;;2.56;47.13
78590;BME280;67888;50.228;7.828;2023-02-28T17:33:06;100206.75;;;2.32;47.77
78590;BME280;67888;50.228;7.828;2023-02-28T17:38:17;100213.91;;;2.02;50.36
78590;BME280;67888;50.228;7.828;2023-02-28T17:43:18;100215.38;;;1.54;51.67
78590;BME280;67888;50.228;7.828;2023-02-28T17:48:18;100226.97;;;1.22;54.87
78590;BME280;67888;50.228;7.828;2023-02-28T17:53:19;100223.22;;;0.95;57.02
78590;BME280;67888;50.228;7.828;2023-02-28T17:58:28;100232.94;;;0.64;57.45
78590;BME280;67888;50.228;7.828;2023-02-28T18:03:31;100233.91;;;0.48;58.31
78590;BME280;67888;50.228;7.828;2023-02-28T18:08:32;100244.78;;;0.44;57.33
78590;BME280;67888;50.228;7.828;2023-02-28T18:13:35;100247.69;;;0.41;58.15
78590;BME280;67888;50.228;7.828;2023-02-28T18:18:35;100245.88;;;0.26;58.07
78590;BME280;67888;50.228;7.828;2023-02-28T18:23:37;100249.16;;;0.20;58.07
78590;BME280;67888;50.228;7.828;2023-02-28T18:28:46;100245.88;;;-0.19;60.37
78590;BME280;67888;50.228;7.828;2023-02-28T18:33:49;100250.78;;;-0.32;59.88
78590;BME280;67888;50.228;7.828;2023-02-28T18:38:50;100251.09;;;-0.27;60.96
78590;BME280;67888;50.228;7.828;2023-02-28T18:43:50;100247.56;;;-0.34;60.00
78590;BME280;67888;50.228;7.828;2023-02-28T18:48:51;100246.38;;;-0.55;62.06
78590;BME280;67888;50.228;7.828;2023-02-28T18:53:51;100243.03;;;-0.63;62.28
78590;BME280;67888;50.228;7.828;2023-02-28T18:58:53;100239.50;;;-1.18;65.70
78590;BME280;67888;50.228;7.828;2023-02-28T19:03:55;100238.81;;;-1.03;65.60
78590;BME280;67888;50.228;7.828;2023-02-28T19:08:57;100237.38;;;-1.06;65.56
78590;BME280;67888;50.228;7.828;2023-02-28T19:13:58;100239.50;;;-1.18;66.31
78590;BME280;67888;50.228;7.828;2023-02-28T19:18:59;100241.28;;;-1.34;66.57
78590;BME280;67888;50.228;7.828;2023-02-28T19:24:01;100242.41;;;-1.37;66.76
78590;BME280;67888;50.228;7.828;2023-02-28T19:29:05;100241.16;;;-1.41;67.41
78590;BME280;67888;50.228;7.828;2023-02-28T19:34:06;100250.84;;;-1.59;69.89
78590;BME280;67888;50.228;7.828;2023-02-28T19:39:08;100249.88;;;-1.66;69.81
78590;BME280;67888;50.228;7.828;2023-02-28T19:44:08;100246.66;;;-1.68;70.26
78590;BME280;67888;50.228;7.828;2023-02-28T19:49:09;100248.56;;;-1.87;69.00
78590;BME280;67888;50.228;7.828;2023-02-28T19:54:12;100247.91;;;-1.97;70.27
78590;BME280;67888;50.228;7.828;2023-02-28T19:59:12;100247.25;;;-1.99;69.92
78590;BME280;67888;50.228;7.828;2023-02-28T20:04:12;100254.34;;;-2.17;73.42
78590;BME280;67888;50.228;7.828;2023-02-28T20:09:13;100261.44;;;-2.11;72.11
78590;BME280;67888;50.228;7.828;2023-02-28T20:14:14;100255.41;;;-2.28;73.48
78590;BME280;67888;50.228;7.828;2023-02-28T20:19:16;100247.81;;;-2.37;72.90
78590;BME280;67888;50.228;7.828;2023-02-28T20:24:18;100244.44;;;-2.38;73.41
78590;BME280;67888;50.228;7.828;2023-02-28T20:29:20;100242.97;;;-2.48;72.77
78590;BME280;67888;50.228;7.828;2023-02-28T20:34:20;100236.63;;;-2.62;73.64
78590;BME280;67888;50.228;7.828;2023-02-28T20:39:22;100247.25;;;-2.65;74.02
78590;BME280;67888;50.228;7.828;2023-02-28T20:44:22;100246.56;;;-2.75;73.66
78590;BME280;67888;50.228;7.828;2023-02-28T20:49:23;100245.47;;;-2.73;73.26
78590;BME280;67888;50.228;7.828;2023-02-28T20:54:23;100245.00;;;-2.68;72.70
78590;BME280;67888;50.228;7.828;2023-02-28T20:59:24;100248.00;;;-2.81;73.91
78590;BME280;67888;50.228;7.828;2023-02-28T21:04:25;100250.59;;;-2.81;73.74
78590;BME280;67888;50.228;7.828;2023-02-28T21:09:26;100246.09;;;-2.79;73.24
78590;BME280;67888;50.228;7.828;2023-02-28T21:14:28;100235.88;;;-2.89;73.56
78590;BME280;67888;50.228;7.828;2023-02-28T21:19:28;100232.31;;;-2.96;74.16
78590;BME280;67888;50.228;7.828;2023-02-28T21:24:29;100225.69;;;-3.06;74.74
78590;BME280;67888;50.228;7.828;2023-02-28T21:29:30;100224.50;;;-3.12;74.57
78590;BME280;67888;50.228;7.828;2023-02-28T21:34:31;100226.56;;;-3.15;75.70
78590;BME280;67888;50.228;7.828;2023-02-28T21:39:32;100227.47;;;-3.33;76.19
78590;BME280;67888;50.228;7.828;2023-02-28T21:44:32;100235.91;;;-3.40;77.32
78590;BME280;67888;50.228;7.828;2023-02-28T21:49:33;100223.53;;;-3.45;76.16
78590;BME280;67888;50.228;7.828;2023-02-28T21:54:34;100224.00;;;-3.41;76.72
78590;BME280;67888;50.228;7.828;2023-02-28T21:59:35;100228.34;;;-3.42;75.45
78590;BME280;67888;50.228;7.828;2023-02-28T22:04:37;100226.56;;;-3.41;76.61
78590;BME280;67888;50.228;7.828;2023-02-28T22:09:38;100227.63;;;-3.52;76.22
78590;BME280;67888;50.228;7.828;2023-02-28T22:14:38;100234.34;;;-3.59;77.72
78590;BME280;67888;50.228;7.828;2023-02-28T22:19:41;100237.81;;;-3.68;77.09
78590;BME280;67888;50.228;7.828;2023-02-28T22:24:41;100247.06;;;-3.75;77.99
78590;BME280;67888;50.228;7.828;2023-02-28T22:29:42;100258.97;;;-3.74;78.12
78590;BME280;67888;50.228;7.828;2023-02-28T22:34:42;100247.50;;;-3.62;77.27
78590;BME280;67888;50.228;7.828;2023-02-28T22:39:42;100248.13;;;-3.68;76.75
78590;BME280;67888;50.228;7.828;2023-02-28T22:44:43;100242.66;;;-3.65;77.16
78590;BME280;67888;50.228;7.828;2023-02-28T22:49:45;100244.56;;;-3.67;76.74
78590;BME280;67888;50.228;7.828;2023-02-28T22:54:49;100254.56;;;-3.64;76.65
78590;BME280;67888;50.228;7.828;2023-02-28T22:59:49;100254.06;;;-3.68;76.52
78590;BME280;67888;50.228;7.828;2023-02-28T23:04:50;100264.19;;;-3.66;76.86
78590;BME280;67888;50.228;7.828;2023-02-28T23:09:50;100263.97;;;-3.55;76.24
78590;BME280;67888;50.228;7.828;2023-02-28T23:14:52;100271.31;;;-3.60;76.36
78590;BME280;67888;50.228;7.828;2023-02-28T23:19:53;100276.97;;;-3.56;76.59
78590;BME280;67888;50.228;7.828;2023-02-28T23:24:53;100279.88;;;-3.51;76.48
78590;BME280;67888;50.228;7.828;2023-02-28T23:29:54;100275.94;;;-3.46;76.24
78590;BME280;67888;50.228;7.828;2023-02-28T23:34:54;100278.22;;;-3.43;76.52
78590;BME280;67888;50.228;7.828;2023-02-28T23:39:54;100272.94;;;-3.59;76.25
78590;BME280;67888;50.228;7.828;2023-02-28T23:44:55;100260.88;;;-3.58;76.71
78590;BME280;67888;50.228;7.828;2023-02-28T23:49:55;100267.50;;;-3.74;78.24
78590;BME280;67888;50.228;7.828;2023-02-28T23:54:55;100266.16;;;-3.78;76.91
78590;BME280;67888;50.228;7.828;2023-02-28T23:59:56;100256.69;;;-3.77;78.18
